createdAt,value
2018-06-13T00:02:14.305Z,82.20
2018-06-13T00:04:43.727Z,82.80
2018-06-13T00:07:13.304Z,82.80
2018-06-13T00:09:43.133Z,83.10
2018-06-13T00:12:12.567Z,83.10
2018-06-13T00:26:31.892Z,83.20
2018-06-13T00:29:01.361Z,83.40
2018-06-13T00:31:30.903Z,83.70
2018-06-13T00:34:00.384Z,83.30
2018-06-13T00:36:29.909Z,83.20
2018-06-13T00:39:00.359Z,83.80
2018-06-13T00:41:29.780Z,83.50
2018-06-13T00:43:59.257Z,83.40
2018-06-13T00:46:28.720Z,83.60
2018-06-13T00:48:58.159Z,83.20
2018-06-13T00:51:27.547Z,83.20
2018-06-13T00:53:57.140Z,83.30
2018-06-13T00:56:31.964Z,83.20
2018-06-13T00:59:01.366Z,83.00
2018-06-13T01:01:30.841Z,82.70
2018-06-13T01:04:00.375Z,82.10
2018-06-13T01:06:29.806Z,81.10
2018-06-13T01:08:59.287Z,81.00
2018-06-13T01:11:28.719Z,81.70
2018-06-13T01:13:58.133Z,81.90
2018-06-13T01:16:27.587Z,81.10
2018-06-13T01:18:57.138Z,81.60
2018-06-13T01:21:26.652Z,82.00
2018-06-13T01:23:56.111Z,81.80
2018-06-13T01:26:25.613Z,82.00
2018-06-13T01:28:55.218Z,80.90
2018-06-13T01:31:24.665Z,80.10
2018-06-13T01:33:54.119Z,80.70
2018-06-13T01:36:28.468Z,80.80
2018-06-13T01:38:58.682Z,80.30
2018-06-13T01:41:28.151Z,80.40
2018-06-13T01:43:57.769Z,80.60
2018-06-13T01:46:27.311Z,81.10
2018-06-13T01:48:56.759Z,81.00
2018-06-13T01:51:26.186Z,80.90
2018-06-13T01:53:55.650Z,80.60
2018-06-13T01:56:25.104Z,80.80
2018-06-13T01:58:54.491Z,81.30
2018-06-13T02:01:24.050Z,81.30
2018-06-13T02:03:53.851Z,81.20
2018-06-13T02:06:23.276Z,81.00
2018-06-13T02:08:52.721Z,81.50
2018-06-13T02:11:22.280Z,81.40
2018-06-13T02:13:51.812Z,81.40
2018-06-13T02:16:21.246Z,80.90
2018-06-13T02:18:50.788Z,80.70
2018-06-13T02:21:20.301Z,80.20
2018-06-13T02:23:49.742Z,79.90
2018-06-13T02:26:19.177Z,79.40
2018-06-13T02:28:48.639Z,78.30
2018-06-13T02:31:18.063Z,79.00
2018-06-13T02:33:47.490Z,79.10
2018-06-13T02:36:16.902Z,80.00
2018-06-13T02:38:46.411Z,78.80
2018-06-13T02:41:16.156Z,78.70
2018-06-13T02:43:45.573Z,79.20
2018-06-13T02:46:14.991Z,78.30
2018-06-13T02:48:44.472Z,78.60
2018-06-13T02:51:13.883Z,77.90
2018-06-13T02:53:43.288Z,77.40
2018-06-13T02:56:12.865Z,78.20
2018-06-13T02:58:42.366Z,77.40
2018-06-13T03:01:11.781Z,77.70
2018-06-13T03:03:41.239Z,77.60
2018-06-13T03:06:10.759Z,78.10
2018-06-13T03:08:40.207Z,78.80
2018-06-13T03:11:09.618Z,78.20
2018-06-13T03:13:39.088Z,79.10
2018-06-13T03:16:08.605Z,78.40
2018-06-13T03:18:38.035Z,78.70
2018-06-13T03:21:07.526Z,78.10
2018-06-13T03:23:37.025Z,78.40
2018-06-13T03:26:06.511Z,78.20
2018-06-13T03:28:35.963Z,78.80
2018-06-13T03:31:05.367Z,79.00
2018-06-13T03:33:34.879Z,78.80
2018-06-13T03:36:04.342Z,78.70
2018-06-13T03:38:33.747Z,77.00
2018-06-13T03:41:03.356Z,78.20
2018-06-13T03:43:32.798Z,77.20
2018-06-13T03:46:02.227Z,77.10
2018-06-13T03:51:00.868Z,76.90
2018-06-13T03:53:30.318Z,76.00
2018-06-13T03:55:59.744Z,75.60
2018-06-13T03:58:29.148Z,76.20
2018-06-13T04:00:59.664Z,75.70
2018-06-13T04:03:29.244Z,76.50
2018-06-13T04:05:58.664Z,76.50
2018-06-13T04:08:28.097Z,76.90
2018-06-13T04:10:57.589Z,76.90
2018-06-13T04:15:56.207Z,75.70
2018-06-13T04:18:25.803Z,76.20
2018-06-13T04:20:55.213Z,75.80
2018-06-13T04:23:24.659Z,75.80
2018-06-13T04:25:54.088Z,76.20
2018-06-13T04:28:23.678Z,76.70
2018-06-13T04:30:53.202Z,74.90
2018-06-13T04:33:22.739Z,76.00
2018-06-13T04:35:52.271Z,75.60
2018-06-13T04:38:21.834Z,76.10
2018-06-13T04:40:51.371Z,75.50
2018-06-13T04:43:20.797Z,74.80
2018-06-13T04:45:52.505Z,76.00
2018-06-13T04:48:22.028Z,74.30
2018-06-13T04:50:51.514Z,74.80
2018-06-13T04:53:20.913Z,74.10
2018-06-13T04:55:50.314Z,72.70
2018-06-13T04:58:20.219Z,72.50
2018-06-13T05:00:49.693Z,71.20
2018-06-13T05:03:19.104Z,73.40
2018-06-13T05:05:48.500Z,72.80
2018-06-13T05:08:17.976Z,73.40
2018-06-13T05:10:47.455Z,73.10
2018-06-13T05:13:17.050Z,73.30
2018-06-13T05:15:46.622Z,71.50
2018-06-13T05:18:16.263Z,72.40
2018-06-13T05:20:45.841Z,73.00
2018-06-13T05:23:15.342Z,71.40
2018-06-13T05:25:44.858Z,71.70
2018-06-13T05:28:14.410Z,70.80
2018-06-13T05:30:43.992Z,72.20
2018-06-13T05:33:13.630Z,72.40
2018-06-13T05:35:43.174Z,72.40
2018-06-13T05:38:12.785Z,71.00
2018-06-13T05:40:42.213Z,71.00
2018-06-13T05:43:11.673Z,69.70
2018-06-13T05:45:41.213Z,70.00
2018-06-13T05:48:10.738Z,69.00
2018-06-13T05:50:40.164Z,68.70
2018-06-13T05:53:09.659Z,68.80
2018-06-13T05:55:39.293Z,69.00
2018-06-13T05:58:08.800Z,69.10
2018-06-13T06:00:38.385Z,68.70
2018-06-13T06:03:07.891Z,67.80
2018-06-13T06:05:37.367Z,66.80
2018-06-13T06:08:06.808Z,66.40
2018-06-13T06:10:36.258Z,67.00
2018-06-13T06:13:05.739Z,67.70
2018-06-13T06:15:35.250Z,66.70
2018-06-13T06:18:04.701Z,64.50
2018-06-13T06:20:34.160Z,65.90
2018-06-13T06:23:03.719Z,64.20
2018-06-13T06:25:33.517Z,65.10
2018-06-13T06:28:02.942Z,63.80
2018-06-13T06:30:32.610Z,63.40
2018-06-13T06:33:02.156Z,62.50
2018-06-13T06:35:31.686Z,62.70
2018-06-13T06:38:01.250Z,63.30
2018-06-13T06:40:31.293Z,62.00
2018-06-13T06:43:00.830Z,62.40
2018-06-13T06:45:30.277Z,62.40
2018-06-13T06:47:59.699Z,62.40
2018-06-13T06:50:29.228Z,61.00
2018-06-13T06:52:58.652Z,60.40
2018-06-13T06:55:28.181Z,60.70
2018-06-13T06:57:57.616Z,60.40
2018-06-13T07:00:27.214Z,62.20
2018-06-13T07:02:56.739Z,60.60
2018-06-13T07:05:26.158Z,61.80
2018-06-13T07:07:55.603Z,61.70
2018-06-13T07:10:25.143Z,61.10
2018-06-13T07:12:54.561Z,62.30
2018-06-13T07:15:24.005Z,62.90
2018-06-13T07:17:53.628Z,61.60
2018-06-13T07:20:23.091Z,61.90
2018-06-13T07:22:52.512Z,60.90
2018-06-13T07:25:22.068Z,60.90
2018-06-13T07:27:51.619Z,62.20
2018-06-13T07:30:21.190Z,63.60
2018-06-13T07:32:50.657Z,62.50
2018-06-13T07:35:20.105Z,61.60
2018-06-13T07:37:50.186Z,60.60
2018-06-13T07:40:19.687Z,59.40
2018-06-13T07:42:49.111Z,60.30
2018-06-13T07:45:18.568Z,60.20
2018-06-13T07:47:48.891Z,59.30
2018-06-13T07:50:18.420Z,58.90
2018-06-13T07:55:18.354Z,59.10
2018-06-13T07:57:47.901Z,59.00
2018-06-13T08:00:17.390Z,59.70
2018-06-13T08:02:46.844Z,58.30
2018-06-13T08:05:16.275Z,59.00
2018-06-13T08:07:45.885Z,59.00
2018-06-13T08:10:15.452Z,60.40
2018-06-13T08:12:47.806Z,58.50
2018-06-13T08:15:17.249Z,58.80
2018-06-13T08:17:46.718Z,58.20
2018-06-13T08:20:16.285Z,56.60
2018-06-13T08:22:45.768Z,56.00
2018-06-13T08:25:15.167Z,55.50
2018-06-13T08:27:51.227Z,57.10
2018-06-13T08:30:20.738Z,56.00
2018-06-13T08:32:50.142Z,56.60
2018-06-13T08:35:19.564Z,56.00
2018-06-13T08:37:49.071Z,56.10
2018-06-13T08:40:18.548Z,56.90
2018-06-13T08:42:47.984Z,57.10
2018-06-13T08:45:17.520Z,56.80
2018-06-13T08:47:46.957Z,54.90
2018-06-13T08:50:16.412Z,55.90
2018-06-13T08:52:45.853Z,54.40
2018-06-13T08:55:15.456Z,54.10
2018-06-13T08:57:44.983Z,54.90
2018-06-13T09:00:14.444Z,54.00
2018-06-13T09:02:43.837Z,55.20
2018-06-13T09:05:13.403Z,54.90
2018-06-13T09:07:42.839Z,53.60
2018-06-13T09:10:12.281Z,54.20
2018-06-13T09:12:41.741Z,53.90
2018-06-13T09:15:11.244Z,54.40
2018-06-13T09:17:40.704Z,54.60
2018-06-13T09:20:11.441Z,54.50
2018-06-13T09:22:40.886Z,54.40
2018-06-13T09:25:10.413Z,53.20
2018-06-13T09:27:39.972Z,52.60
2018-06-13T09:30:09.452Z,53.30
2018-06-13T09:32:39.021Z,53.10
2018-06-13T09:35:08.511Z,52.40
2018-06-13T09:37:38.053Z,53.30
2018-06-13T09:40:08.723Z,51.50
2018-06-13T09:42:38.182Z,51.40
2018-06-13T09:45:07.689Z,50.10
2018-06-13T09:47:37.104Z,49.80
2018-06-13T09:50:06.601Z,50.30
2018-06-13T09:52:36.101Z,50.80
2018-06-13T09:55:05.537Z,51.10
2018-06-13T09:57:34.988Z,50.70
2018-06-13T10:00:09.584Z,52.40
2018-06-13T10:02:39.143Z,52.10
2018-06-13T10:05:08.622Z,53.60
2018-06-13T10:07:38.115Z,53.50
2018-06-13T10:10:07.645Z,56.90
2018-06-13T10:12:37.102Z,55.70
2018-06-13T10:15:06.588Z,57.80
2018-06-13T10:17:36.111Z,58.00
2018-06-13T10:20:05.708Z,61.90
2018-06-13T10:22:35.159Z,59.70
2018-06-13T10:25:04.623Z,60.70
2018-06-13T10:27:38.784Z,60.90
2018-06-13T10:30:08.256Z,56.50
2018-06-13T10:32:37.839Z,55.00
2018-06-13T10:35:07.496Z,55.20
2018-06-13T10:37:36.900Z,54.20
2018-06-13T10:40:06.795Z,55.50
2018-06-13T10:42:36.283Z,53.70
2018-06-13T10:45:05.743Z,53.60
2018-06-13T10:47:35.169Z,54.00
2018-06-13T10:50:04.648Z,52.70
2018-06-13T10:52:34.210Z,54.50
2018-06-13T10:55:03.692Z,56.50
2018-06-13T10:57:33.117Z,56.30
2018-06-13T11:00:02.635Z,56.30
2018-06-13T11:02:32.083Z,55.90
2018-06-13T11:05:01.611Z,57.10
2018-06-13T11:07:31.029Z,57.60
2018-06-13T11:10:00.596Z,57.00
2018-06-13T11:12:30.119Z,56.60
2018-06-13T11:17:28.875Z,53.70
2018-06-13T11:19:58.345Z,53.50
2018-06-13T11:22:27.843Z,52.70
2018-06-13T11:24:57.384Z,52.10
2018-06-13T11:27:26.949Z,50.20
2018-06-13T11:29:56.474Z,48.00
2018-06-13T11:32:25.977Z,49.10
2018-06-13T11:34:58.386Z,47.50
2018-06-13T11:37:28.291Z,43.40
2018-06-13T11:39:57.714Z,41.70
2018-06-13T11:42:27.323Z,40.70
2018-06-13T11:44:56.888Z,39.20
2018-06-13T11:47:26.319Z,40.90
2018-06-13T11:49:55.917Z,43.00
2018-06-13T11:52:26.351Z,43.80
2018-06-13T11:54:56.000Z,45.80
2018-06-13T11:57:25.455Z,47.30
2018-06-13T11:59:54.935Z,46.40
2018-06-13T12:02:24.583Z,48.00
2018-06-13T12:04:54.166Z,48.30
2018-06-13T12:07:23.594Z,47.50
2018-06-13T12:09:53.221Z,43.80
2018-06-13T12:12:22.732Z,45.30
2018-06-13T12:14:58.773Z,45.30
2018-06-13T12:17:28.209Z,47.10
2018-06-13T12:19:57.647Z,45.70
2018-06-13T12:22:27.154Z,44.20
2018-06-13T12:24:56.603Z,44.40
2018-06-13T12:27:26.228Z,45.80
2018-06-13T12:29:55.641Z,46.20
2018-06-13T12:32:25.031Z,46.90
2018-06-13T12:34:54.482Z,44.50
2018-06-13T12:37:24.180Z,41.60
2018-06-13T12:39:53.693Z,39.00
2018-06-13T12:44:52.424Z,34.00
2018-06-13T12:47:22.070Z,34.10
2018-06-13T12:49:51.514Z,37.00
2018-06-13T12:52:20.925Z,39.10
2018-06-13T12:54:50.476Z,39.40
2018-06-13T12:57:19.895Z,41.90
2018-06-13T12:59:49.311Z,42.00
2018-06-13T13:02:18.888Z,40.90
2018-06-13T13:04:48.437Z,42.10
2018-06-13T13:07:17.963Z,42.30
2018-06-13T13:09:47.355Z,43.60
2018-06-13T13:12:16.742Z,43.50
2018-06-13T13:14:46.397Z,44.60
2018-06-13T13:17:15.824Z,43.10
2018-06-13T13:19:45.299Z,44.70
2018-06-13T13:22:14.849Z,45.30
2018-06-13T13:24:44.319Z,45.30
2018-06-13T13:27:13.845Z,45.00
2018-06-13T13:29:43.278Z,43.60
2018-06-13T13:34:42.072Z,41.10
2018-06-13T13:37:11.566Z,39.20
2018-06-13T13:39:40.999Z,39.70
2018-06-13T13:42:10.481Z,37.20
2018-06-13T13:44:39.940Z,38.40
2018-06-13T13:47:09.384Z,37.90
2018-06-13T13:49:38.970Z,38.10
2018-06-13T13:52:09.383Z,37.70
2018-06-13T13:54:38.856Z,38.80
2018-06-13T13:57:08.315Z,34.20
2018-06-13T13:59:37.862Z,31.30
2018-06-13T14:02:07.463Z,30.80
2018-06-13T14:04:36.883Z,29.30
2018-06-13T14:07:06.371Z,31.10
2018-06-13T14:09:35.833Z,34.10
2018-06-13T14:12:05.401Z,36.90
2018-06-13T14:17:04.491Z,41.50
2018-06-13T14:19:34.158Z,43.80
2018-06-13T14:22:03.797Z,43.40
2018-06-13T14:24:33.168Z,42.80
2018-06-13T14:27:02.623Z,43.80
2018-06-13T14:29:32.214Z,43.40
2018-06-13T14:32:01.631Z,43.00
2018-06-13T14:34:31.075Z,43.00
2018-06-13T14:37:00.633Z,39.60
2018-06-13T14:39:30.092Z,40.40
2018-06-13T14:41:59.503Z,39.90
2018-06-13T14:44:28.936Z,36.50
2018-06-13T14:46:58.487Z,37.40
2018-06-13T14:49:27.986Z,31.60
2018-06-13T14:51:57.391Z,33.20
2018-06-13T14:54:26.908Z,32.30
2018-06-13T14:56:56.450Z,28.80
2018-06-13T14:59:25.903Z,27.90
2018-06-13T15:01:55.450Z,28.70
2018-06-13T15:04:28.597Z,31.70
2018-06-13T15:06:58.054Z,30.10
2018-06-13T15:09:27.915Z,31.90
2018-06-13T15:11:57.602Z,37.40
2018-06-13T15:14:27.300Z,37.00
2018-06-13T15:16:57.531Z,34.50
2018-06-13T15:19:27.311Z,34.20
2018-06-13T15:21:56.851Z,35.20
2018-06-13T15:24:26.550Z,35.50
2018-06-13T15:26:55.967Z,36.50
2018-06-13T15:29:25.636Z,39.10
2018-06-13T15:31:55.141Z,37.90
2018-06-13T15:34:24.542Z,38.00
2018-06-13T15:36:53.978Z,38.00
2018-06-13T15:39:23.491Z,39.60
2018-06-13T15:41:53.154Z,41.30
2018-06-13T15:44:22.566Z,40.80
2018-06-13T15:46:51.982Z,40.50
2018-06-13T15:49:21.549Z,38.00
2018-06-13T15:51:50.964Z,39.60
2018-06-13T15:54:20.509Z,40.60
2018-06-13T15:56:49.973Z,40.80
2018-06-13T15:59:19.534Z,41.00
2018-06-13T16:01:48.983Z,40.80
2018-06-13T16:04:18.398Z,40.20
2018-06-13T16:06:47.903Z,38.70
2018-06-13T16:09:17.435Z,41.70
2018-06-13T16:11:46.926Z,39.90
2018-06-13T16:14:16.476Z,41.40
2018-06-13T16:16:45.937Z,42.20
2018-06-13T16:19:15.339Z,41.00
2018-06-13T16:21:44.760Z,40.20
2018-06-13T16:24:14.291Z,40.10
2018-06-13T16:26:43.899Z,41.50
2018-06-13T16:29:13.276Z,43.10
2018-06-13T16:31:49.078Z,43.10
2018-06-13T16:34:18.549Z,46.30
2018-06-13T16:36:47.985Z,44.60
2018-06-13T16:39:17.379Z,47.00
2018-06-13T16:41:46.955Z,46.00
2018-06-13T16:44:16.540Z,45.80
2018-06-13T16:46:45.975Z,44.10
2018-06-13T16:49:16.230Z,44.40
2018-06-13T16:51:55.279Z,44.30
2018-06-13T16:55:13.178Z,45.50
2018-06-13T17:00:13.890Z,46.60
2018-06-13T17:02:43.546Z,44.70
2018-06-13T17:05:12.982Z,45.90
2018-06-13T17:07:42.436Z,46.60
2018-06-13T17:10:11.979Z,47.40
2018-06-13T17:12:41.691Z,43.30
2018-06-13T17:15:11.154Z,44.80
2018-06-13T17:17:40.632Z,44.80
2018-06-13T17:20:10.219Z,48.00
2018-06-13T17:22:40.139Z,48.90
2018-06-13T17:25:09.660Z,47.30
2018-06-13T17:27:39.595Z,46.00
2018-06-13T17:30:09.203Z,47.90
2018-06-13T17:32:38.762Z,48.70
2018-06-13T17:35:08.185Z,47.30
2018-06-13T17:37:38.895Z,48.10
2018-06-13T17:40:08.412Z,49.50
2018-06-13T17:42:38.047Z,49.30
2018-06-13T17:45:07.705Z,46.50
2018-06-13T17:47:37.182Z,46.80
2018-06-13T17:50:06.722Z,49.30
2018-06-13T17:52:36.181Z,46.60
2018-06-13T17:55:05.692Z,48.30
2018-06-13T17:57:35.088Z,47.50
2018-06-13T18:00:05.043Z,47.60
2018-06-13T18:02:34.549Z,47.50
2018-06-13T18:05:04.045Z,48.30
2018-06-13T18:07:33.451Z,50.00
2018-06-13T18:10:05.939Z,46.50
2018-06-13T18:12:35.580Z,47.80
2018-06-13T18:15:05.130Z,48.20
2018-06-13T18:17:34.535Z,48.20
2018-06-13T18:20:04.239Z,47.30
2018-06-13T18:22:34.892Z,47.60
2018-06-13T18:25:07.035Z,49.50
2018-06-13T18:27:39.531Z,52.30
2018-06-13T18:30:09.134Z,52.20
2018-06-13T18:32:38.946Z,49.90
2018-06-13T18:35:08.407Z,50.60
2018-06-13T18:37:37.879Z,51.80
2018-06-13T18:40:07.462Z,50.60
2018-06-13T18:42:36.931Z,50.80
2018-06-13T18:45:06.375Z,51.00
2018-06-13T18:47:35.916Z,53.00
2018-06-13T18:50:05.554Z,52.40
2018-06-13T18:52:35.050Z,52.70
2018-06-13T18:55:04.504Z,52.80
2018-06-13T18:57:34.064Z,55.20
2018-06-13T19:00:03.794Z,53.80
2018-06-13T19:02:34.012Z,52.60
2018-06-13T19:07:35.044Z,52.00
2018-06-13T19:10:05.587Z,53.20
2018-06-13T19:12:36.094Z,55.40
2018-06-13T19:15:06.796Z,53.40
2018-06-13T19:17:37.980Z,56.50
2018-06-13T19:20:07.401Z,58.00
2018-06-13T19:22:36.863Z,58.20
2018-06-13T19:25:06.385Z,58.60
2018-06-13T19:27:36.071Z,59.90
2018-06-13T19:30:06.234Z,61.60
2018-06-13T19:32:37.168Z,61.40
2018-06-13T19:35:07.475Z,62.80
2018-06-13T19:37:37.594Z,64.00
2018-06-13T19:40:08.209Z,63.80
2018-06-13T19:42:38.359Z,64.60
2018-06-13T19:45:08.492Z,66.40
2018-06-13T19:47:44.676Z,66.30
2018-06-13T19:50:14.704Z,67.20
2018-06-13T19:52:50.349Z,67.10
2018-06-13T19:55:25.681Z,67.80
2018-06-13T19:57:55.984Z,68.40
2018-06-13T20:00:26.546Z,68.90
2018-06-13T20:03:01.212Z,69.30
2018-06-13T20:05:35.864Z,69.60
2018-06-13T20:08:05.546Z,70.20
2018-06-13T20:10:35.146Z,70.50
2018-06-13T20:13:10.070Z,71.00
2018-06-13T20:16:08.790Z,71.60
2018-06-13T20:19:42.378Z,72.40
2018-06-13T20:22:11.919Z,72.10
2018-06-13T20:24:44.233Z,72.00
2018-06-13T20:27:18.860Z,72.50
2018-06-13T20:29:53.490Z,72.80
2018-06-13T20:32:22.936Z,73.10
2018-06-13T20:34:52.410Z,73.40
2018-06-13T20:37:21.963Z,73.80
2018-06-13T20:39:51.493Z,73.60
2018-06-13T20:42:21.086Z,74.50
2018-06-13T20:44:50.562Z,74.40
2018-06-13T20:47:20.094Z,74.90
2018-06-13T20:49:49.655Z,75.00
2018-06-13T20:52:19.114Z,74.80
2018-06-13T20:54:48.657Z,75.60
2018-06-13T20:57:18.083Z,76.10
2018-06-13T20:59:47.603Z,76.50
2018-06-13T21:02:17.132Z,76.30
2018-06-13T21:04:46.616Z,76.70
2018-06-13T21:07:16.050Z,77.30
2018-06-13T21:09:45.608Z,76.90
2018-06-13T21:12:15.136Z,77.50
2018-06-13T21:14:44.636Z,77.70
2018-06-13T21:17:14.193Z,78.10
2018-06-13T21:19:43.721Z,78.30
2018-06-13T21:22:13.260Z,78.50
2018-06-13T21:24:42.697Z,78.70
2018-06-13T21:27:12.168Z,78.90
2018-06-13T21:29:42.447Z,79.30
2018-06-13T21:32:11.950Z,79.50
2018-06-13T21:34:41.453Z,79.90
2018-06-13T21:37:10.945Z,80.10
2018-06-13T21:39:40.553Z,80.30
2018-06-13T21:42:10.030Z,80.50
2018-06-13T21:44:39.443Z,81.10
2018-06-13T21:47:08.907Z,81.50
2018-06-13T21:49:38.423Z,81.50
2018-06-13T21:52:07.845Z,81.60
2018-06-13T21:54:37.429Z,81.70
2018-06-13T21:57:07.097Z,81.70
2018-06-13T21:59:36.528Z,82.10
2018-06-13T22:02:06.095Z,82.30
2018-06-13T22:04:35.656Z,82.30
2018-06-13T22:07:05.276Z,82.30
2018-06-13T22:09:34.755Z,82.30
2018-06-13T22:12:04.284Z,82.50
2018-06-13T22:14:33.795Z,82.40
2018-06-13T22:17:03.512Z,82.50
2018-06-13T22:19:32.901Z,82.30
2018-06-13T22:22:02.339Z,82.10
2018-06-13T22:24:31.849Z,82.00
2018-06-13T22:27:01.264Z,81.90
2018-06-13T22:29:30.671Z,82.00
2018-06-13T22:32:00.309Z,82.00
2018-06-13T22:34:29.826Z,82.30
2018-06-13T22:36:59.404Z,82.50
2018-06-13T22:39:28.883Z,82.60
2018-06-13T22:41:58.368Z,83.00
2018-06-13T22:44:27.862Z,82.70
2018-06-13T22:46:57.281Z,82.70
2018-06-13T22:49:26.677Z,82.80
2018-06-13T22:51:56.235Z,82.70
2018-06-13T22:54:25.664Z,82.60
2018-06-13T22:56:55.104Z,82.80
2018-06-13T22:59:24.560Z,82.80
2018-06-13T23:01:54.096Z,82.70
2018-06-13T23:04:23.523Z,83.10
2018-06-13T23:06:52.984Z,83.00
2018-06-13T23:09:22.498Z,82.70
2018-06-13T23:11:52.007Z,83.00
2018-06-13T23:14:21.425Z,83.10
2018-06-13T23:16:50.846Z,83.20
2018-06-13T23:19:20.339Z,83.50
2018-06-13T23:21:49.761Z,83.60
2018-06-13T23:24:19.202Z,83.70
2018-06-13T23:26:51.791Z,83.80
2018-06-13T23:29:21.257Z,83.70
2018-06-13T23:31:50.761Z,83.80
2018-06-13T23:34:20.242Z,83.80
2018-06-13T23:36:49.786Z,83.80
2018-06-13T23:39:19.399Z,83.70
2018-06-13T23:41:49.013Z,83.80
2018-06-13T23:44:18.400Z,84.00
2018-06-13T23:46:47.843Z,84.10
2018-06-13T23:49:17.482Z,84.20
2018-06-13T23:51:46.912Z,84.30
2018-06-13T23:54:16.332Z,84.70
2018-06-13T23:56:45.742Z,84.70
2018-06-13T23:59:15.185Z,84.70
